Thomson Majesty — 9HA2188 — position and weather

sailwx.info

Track history (hours):
 
Tides and Currents Weather Stations Pressure Air Temp Water Temp Dewpoint Dewpoint Depression Visibility Wind Speed Wind Dir Waves Ship Positions

Thomson Majesty

Last reported at 2015-Apr-28 10:16 UTC. Time now 2015-Apr-28 11:48 UTC.
Position N 40°50' E 014°16'.

Length 207 m; draft 6.2 m.

Type: Ship. MMSI: 248124000.

Date/timePositionNaut miles runAvg speedWind from/ knotsBaromVisibWave heightAir tempDewpointWater temp
2015-Apr-28 10:16N 40°50' E 014°16'0 0.0
2015-Apr-28 09:23N 40°50' E 014°16'0 0.0
2015-Apr-28 07:25N 40°50' E 014°16'0 0.0
2015-Apr-28 06:03N 40°50' E 014°16'0 0.3
2015-Apr-28 05:25N 40°50' E 014°16'910.8
2015-Apr-28 04:33N 40°43' E 014°08'1615.3
2015-Apr-28 03:32N 40°41' E 013°48'1717.3
2015-Apr-28 02:33N 40°51' E 013°30'1716.9
2015-Apr-28 01:33N 41°00' E 013°11'142 5.6
2015-Apr-27 00:20N 42°24' E 010°37'1315.1
2015-Apr-26 23:29N 42°32' E 010°24'1815.0
2015-Apr-26 22:18N 42°42' E 010°03'1313.3
2015-Apr-26 21:20N 42°54' E 010°01'1215.0
2015-Apr-26 20:33N 43°06' E 010°05'1514.9
2015-Apr-26 19:33N 43°20' E 010°09'1313.2
2015-Apr-26 18:33N 43°32' E 010°17'1 1.1
2015-Apr-26 17:31N 43°33' E 010°18'0 0.0
2015-Apr-26 16:31N 43°33' E 010°18'0 0.0
2015-Apr-26 15:31N 43°33' E 010°18'0 0.0
2015-Apr-26 14:31N 43°33' E 010°18'0 0.0
2015-Apr-26 13:31N 43°33' E 010°18'0 0.0
2015-Apr-26 12:31N 43°33' E 010°18'0 0.0
2015-Apr-26 11:31N 43°33' E 010°18'0 0.0
2015-Apr-26 10:28N 43°33' E 010°18'0 0.0
2015-Apr-26 09:28N 43°33' E 010°18'0 0.0
2015-Apr-26 08:31N 43°33' E 010°18'0 0.0
2015-Apr-26 07:31N 43°33' E 010°18'0 0.0
2015-Apr-26 06:31N 43°33' E 010°18'0 0.0
2015-Apr-26 05:31N 43°33' E 010°18'2 2.0
2015-Apr-26 04:33N 43°32' E 010°16'1313.1
2015-Apr-26 03:34N 43°31' E 009°58'1615.8
2015-Apr-26 02:33N 43°30' E 009°36'1616.1
2015-Apr-26 01:34N 43°26' E 009°15'1616.3
2015-Apr-26 00:34N 43°22' E 008°53'1717.0
2015-Apr-25 23:34N 43°18' E 008°30'1716.9
2015-Apr-25 22:33N 43°14' E 008°07'2016.8
2015-Apr-25 21:22N 43°10' E 007°41'7113.7
2015-Apr-25 16:13N 42°59' E 006°05'812.9
2015-Apr-25 15:33N 43°05' E 005°57'2 2.2
2015-Apr-25 14:32N 43°07' E 005°56'0 0.0
2015-Apr-25 13:33N 43°07' E 005°56'0 0.0
2015-Apr-25 12:33N 43°07' E 005°56'0 0.0
2015-Apr-25 11:33N 43°07' E 005°56'0 0.0
2015-Apr-25 10:33N 43°07' E 005°56'0 0.0
2015-Apr-25 09:33N 43°07' E 005°56'0 0.0
2015-Apr-25 08:33N 43°07' E 005°56'0 0.0
2015-Apr-25 07:33N 43°07' E 005°56'0 0.4
2015-Apr-25 06:33N 43°07' E 005°55'6 6.1
2015-Apr-25 05:34N 43°01' E 005°54'3916.3
2015-Apr-25 03:08N 42°39' E 005°09'3115.8
2015-Apr-25 01:09N 42°23' E 004°32'2616.2
2015-Apr-24 23:33N 42°09' E 004°03'1712.5
2015-Apr-24 22:11N 42°00' E 003°43'911.7
2015-Apr-24 21:26N 41°56' E 003°33'1111.9
2015-Apr-24 20:32N 41°50' E 003°21'1313.2
2015-Apr-24 19:33N 41°43' E 003°06'1211.6
2015-Apr-24 18:33N 41°37' E 002°53'1312.5
2015-Apr-24 17:32N 41°30' E 002°39'1312.6
2015-Apr-24 16:32N 41°24' E 002°24'1010.5
2015-Apr-24 15:33N 41°22' E 002°11'0 0.2
2015-Apr-24 14:29N 41°22' E 002°11'0 0.0
2015-Apr-24 13:29N 41°22' E 002°11'0 0.0
2015-Apr-24 12:12N 41°22' E 002°11'0 0.0
2015-Apr-24 11:26N 41°22' E 002°11'0 0.0
2015-Apr-24 10:17N 41°22' E 002°11'0 0.0
2015-Apr-24 09:32N 41°22' E 002°11'0 0.0
2015-Apr-24 08:11N 41°22' E 002°11'0 0.0
2015-Apr-24 07:32N 41°22' E 002°11'1 0.5
2015-Apr-24 04:33N 41°21' E 002°11'1313.4
2015-Apr-24 03:33N 41°08' E 002°07'1616.0
2015-Apr-24 02:33N 40°54' E 001°57'1716.5
2015-Apr-24 01:33N 40°39' E 001°47'1716.6
2015-Apr-24 00:34N 40°25' E 001°36'1616.4
2015-Apr-23 23:33N 40°10' E 001°27'1615.9
2015-Apr-23 22:33N 39°56' E 001°17'1616.1
2015-Apr-23 21:33N 39°41' E 001°08'1716.7
2015-Apr-23 20:33N 39°27' E 000°58'1716.6
2015-Apr-23 19:32N 39°12' E 000°48'1816.6
2015-Apr-23 18:26N 38°55' E 000°37'1516.6
2015-Apr-23 17:33N 38°42' E 000°28'1716.6
2015-Apr-23 16:33N 38°28' E 000°17'1716.6
2015-Apr-23 15:33N 38°15' E 000°04'1616.4
2015-Apr-23 14:33N 38°02' W 000°07'1716.6
2015-Apr-23 13:33N 37°48' W 000°19'1515.0
2015-Apr-23 12:33N 37°35' W 000°29'1312.7
2015-Apr-23 11:33N 37°26' W 000°40'1312.9
2015-Apr-23 10:34N 37°18' W 000°53'1313.0
2015-Apr-23 09:33N 37°09' W 001°05'1413.0
2015-Apr-23 08:30N 36°60' W 001°18'19111.9
2015-Apr-22 16:28N 36°07' W 005°06'1314.2
2015-Apr-22 15:34N 36°06' W 005°22'2 2.3
2015-Apr-22 14:34N 36°09' W 005°22'0 0.0
2015-Apr-22 13:31N 36°09' W 005°22'0 0.0
2015-Apr-22 12:34N 36°09' W 005°22'0 0.0
2015-Apr-22 11:33N 36°09' W 005°22'0 0.0
2015-Apr-22 10:34N 36°09' W 005°22'0 0.0
2015-Apr-22 09:33N 36°09' W 005°22'0 0.0
2015-Apr-22 08:33N 36°09' W 005°22'0 0.0
2015-Apr-22 07:28N 36°09' W 005°22'0 0.3
2015-Apr-22 06:33N 36°09' W 005°22'1110.7
2015-Apr-22 05:33N 35°58' W 005°26'2316.8
2015-Apr-22 04:12N 35°53' W 005°53'  
Track history (hours):
 
Tides and Currents Weather Stations Pressure Air Temp Water Temp Dewpoint Dewpoint Depression Visibility Wind Speed Wind Dir Waves Ship Positions

Thomson Majesty

Last reported at 2015-Apr-28 10:16 UTC. Time now 2015-Apr-28 11:48 UTC.
Position N 40°50' E 014°16'.

Length 207 m; draft 6.2 m.

Type: Ship. MMSI: 248124000.

Date/timePositionNaut miles runAvg speedWind from/ knotsBaromVisibWave heightAir tempDewpointWater temp
2015-Apr-28 10:16N 40°50' E 014°16'0 0.0
2015-Apr-28 09:23N 40°50' E 014°16'0 0.0
2015-Apr-28 07:25N 40°50' E 014°16'0 0.0
2015-Apr-28 06:03N 40°50' E 014°16'0 0.3
2015-Apr-28 05:25N 40°50' E 014°16'910.8
2015-Apr-28 04:33N 40°43' E 014°08'1615.3
2015-Apr-28 03:32N 40°41' E 013°48'1717.3
2015-Apr-28 02:33N 40°51' E 013°30'1716.9
2015-Apr-28 01:33N 41°00' E 013°11'142 5.6
2015-Apr-27 00:20N 42°24' E 010°37'1315.1
2015-Apr-26 23:29N 42°32' E 010°24'1815.0
2015-Apr-26 22:18N 42°42' E 010°03'1313.3
2015-Apr-26 21:20N 42°54' E 010°01'1215.0
2015-Apr-26 20:33N 43°06' E 010°05'1514.9
2015-Apr-26 19:33N 43°20' E 010°09'1313.2
2015-Apr-26 18:33N 43°32' E 010°17'1 1.1
2015-Apr-26 17:31N 43°33' E 010°18'0 0.0
2015-Apr-26 16:31N 43°33' E 010°18'0 0.0
2015-Apr-26 15:31N 43°33' E 010°18'0 0.0
2015-Apr-26 14:31N 43°33' E 010°18'0 0.0
2015-Apr-26 13:31N 43°33' E 010°18'0 0.0
2015-Apr-26 12:31N 43°33' E 010°18'0 0.0
2015-Apr-26 11:31N 43°33' E 010°18'0 0.0
2015-Apr-26 10:28N 43°33' E 010°18'0 0.0
2015-Apr-26 09:28N 43°33' E 010°18'0 0.0
2015-Apr-26 08:31N 43°33' E 010°18'0 0.0
2015-Apr-26 07:31N 43°33' E 010°18'0 0.0
2015-Apr-26 06:31N 43°33' E 010°18'0 0.0
2015-Apr-26 05:31N 43°33' E 010°18'2 2.0
2015-Apr-26 04:33N 43°32' E 010°16'1313.1
2015-Apr-26 03:34N 43°31' E 009°58'1615.8
2015-Apr-26 02:33N 43°30' E 009°36'1616.1
2015-Apr-26 01:34N 43°26' E 009°15'1616.3
2015-Apr-26 00:34N 43°22' E 008°53'1717.0
2015-Apr-25 23:34N 43°18' E 008°30'1716.9
2015-Apr-25 22:33N 43°14' E 008°07'2016.8
2015-Apr-25 21:22N 43°10' E 007°41'7113.7
2015-Apr-25 16:13N 42°59' E 006°05'812.9
2015-Apr-25 15:33N 43°05' E 005°57'2 2.2
2015-Apr-25 14:32N 43°07' E 005°56'0 0.0
2015-Apr-25 13:33N 43°07' E 005°56'0 0.0
2015-Apr-25 12:33N 43°07' E 005°56'0 0.0
2015-Apr-25 11:33N 43°07' E 005°56'0 0.0
2015-Apr-25 10:33N 43°07' E 005°56'0 0.0
2015-Apr-25 09:33N 43°07' E 005°56'0 0.0
2015-Apr-25 08:33N 43°07' E 005°56'0 0.0
2015-Apr-25 07:33N 43°07' E 005°56'0 0.4
2015-Apr-25 06:33N 43°07' E 005°55'6 6.1
2015-Apr-25 05:34N 43°01' E 005°54'3916.3
2015-Apr-25 03:08N 42°39' E 005°09'3115.8
2015-Apr-25 01:09N 42°23' E 004°32'2616.2
2015-Apr-24 23:33N 42°09' E 004°03'1712.5
2015-Apr-24 22:11N 42°00' E 003°43'911.7
2015-Apr-24 21:26N 41°56' E 003°33'1111.9
2015-Apr-24 20:32N 41°50' E 003°21'1313.2
2015-Apr-24 19:33N 41°43' E 003°06'1211.6
2015-Apr-24 18:33N 41°37' E 002°53'1312.5
2015-Apr-24 17:32N 41°30' E 002°39'1312.6
2015-Apr-24 16:32N 41°24' E 002°24'1010.5
2015-Apr-24 15:33N 41°22' E 002°11'0 0.2
2015-Apr-24 14:29N 41°22' E 002°11'0 0.0
2015-Apr-24 13:29N 41°22' E 002°11'0 0.0
2015-Apr-24 12:12N 41°22' E 002°11'0 0.0
2015-Apr-24 11:26N 41°22' E 002°11'0 0.0
2015-Apr-24 10:17N 41°22' E 002°11'0 0.0
2015-Apr-24 09:32N 41°22' E 002°11'0 0.0
2015-Apr-24 08:11N 41°22' E 002°11'0 0.0
2015-Apr-24 07:32N 41°22' E 002°11'1 0.5
2015-Apr-24 04:33N 41°21' E 002°11'1313.4
2015-Apr-24 03:33N 41°08' E 002°07'1616.0
2015-Apr-24 02:33N 40°54' E 001°57'1716.5
2015-Apr-24 01:33N 40°39' E 001°47'1716.6
2015-Apr-24 00:34N 40°25' E 001°36'1616.4
2015-Apr-23 23:33N 40°10' E 001°27'1615.9
2015-Apr-23 22:33N 39°56' E 001°17'1616.1
2015-Apr-23 21:33N 39°41' E 001°08'1716.7
2015-Apr-23 20:33N 39°27' E 000°58'1716.6
2015-Apr-23 19:32N 39°12' E 000°48'1816.6
2015-Apr-23 18:26N 38°55' E 000°37'1516.6
2015-Apr-23 17:33N 38°42' E 000°28'1716.6
2015-Apr-23 16:33N 38°28' E 000°17'1716.6
2015-Apr-23 15:33N 38°15' E 000°04'1616.4
2015-Apr-23 14:33N 38°02' W 000°07'1716.6
2015-Apr-23 13:33N 37°48' W 000°19'1515.0
2015-Apr-23 12:33N 37°35' W 000°29'1312.7
2015-Apr-23 11:33N 37°26' W 000°40'1312.9
2015-Apr-23 10:34N 37°18' W 000°53'1313.0
2015-Apr-23 09:33N 37°09' W 001°05'1413.0
2015-Apr-23 08:30N 36°60' W 001°18'19111.9
2015-Apr-22 16:28N 36°07' W 005°06'1314.2
2015-Apr-22 15:34N 36°06' W 005°22'2 2.3
2015-Apr-22 14:34N 36°09' W 005°22'0 0.0
2015-Apr-22 13:31N 36°09' W 005°22'0 0.0
2015-Apr-22 12:34N 36°09' W 005°22'0 0.0
2015-Apr-22 11:33N 36°09' W 005°22'0 0.0
2015-Apr-22 10:34N 36°09' W 005°22'0 0.0
2015-Apr-22 09:33N 36°09' W 005°22'0 0.0
2015-Apr-22 08:33N 36°09' W 005°22'0 0.0
2015-Apr-22 07:28N 36°09' W 005°22'0 0.3
2015-Apr-22 06:33N 36°09' W 005°22'1110.7
2015-Apr-22 05:33N 35°58' W 005°26'2316.8
2015-Apr-22 04:12N 35°53' W 005°53'  

Dump ship's entire track history